Terminal Aerodrome Forecast
Issued by NWS

Home | Current Version | Previous Version | Text Only | Print | Product List | Glossary On
Versions: 1 2 3 4 5 6 7 8 9 10 11 12 13 14 15 16 17 18 19 20 21 22
694
FTUS46 KPDT 242340
TAFPSC
TAF
KPSC 242340Z 2500/2524 23010G18KT P6SM FEW250
     FM250400 21005KT P6SM FEW050
     FM251200 18004KT 5SM BR SCT004
     FM251500 VRB03KT 2SM BR OVC004
     FM251800 35005KT P6SM BKN100 OVC180=

USA.gov is the U.S. government's official web portal to all federal, state and local government web resources and services.